createdAt,value
2017-12-29T00:00:02.221Z,14.90
2017-12-29T00:02:29.775Z,14.82
2017-12-29T00:04:57.311Z,14.88
2017-12-29T00:07:24.900Z,14.81
2017-12-29T00:09:52.434Z,14.81
2017-12-29T00:12:19.990Z,14.82
2017-12-29T00:14:47.584Z,14.71
2017-12-29T00:17:15.144Z,14.76
2017-12-29T00:19:42.701Z,14.71
2017-12-29T00:22:10.402Z,14.66
2017-12-29T00:24:37.959Z,14.70
2017-12-29T00:27:05.501Z,14.63
2017-12-29T00:29:33.103Z,14.61
2017-12-29T00:32:00.678Z,14.59
2017-12-29T00:34:28.238Z,14.57
2017-12-29T00:36:55.828Z,14.51
2017-12-29T00:39:23.382Z,14.53
2017-12-29T00:41:50.951Z,14.51
2017-12-29T00:44:18.529Z,14.45
2017-12-29T00:46:46.091Z,14.50
2017-12-29T00:49:13.656Z,14.35
2017-12-29T00:51:41.265Z,14.35
2017-12-29T00:54:08.832Z,14.34
2017-12-29T00:56:36.400Z,14.35
2017-12-29T00:59:04.001Z,14.46
2017-12-29T01:01:31.576Z,14.45
2017-12-29T01:03:59.140Z,14.43
2017-12-29T01:06:26.733Z,14.44
2017-12-29T01:08:54.307Z,14.42
2017-12-29T01:11:22.033Z,14.38
2017-12-29T01:13:49.630Z,14.36
2017-12-29T01:16:17.195Z,14.29
2017-12-29T01:18:44.776Z,14.42
2017-12-29T01:21:12.393Z,14.36
2017-12-29T01:23:39.976Z,14.36
2017-12-29T01:26:07.553Z,14.30
2017-12-29T01:28:35.170Z,14.25
2017-12-29T01:31:02.740Z,14.19
2017-12-29T01:33:30.319Z,14.23
2017-12-29T01:35:57.938Z,14.18
2017-12-29T01:38:25.527Z,14.15
2017-12-29T01:40:53.141Z,14.05
2017-12-29T01:43:20.756Z,13.98
2017-12-29T01:45:48.454Z,13.99
2017-12-29T01:48:16.012Z,14.02
2017-12-29T01:50:43.577Z,14.02
2017-12-29T01:53:11.140Z,13.99
2017-12-29T01:55:38.716Z,14.01
2017-12-29T01:58:06.325Z,14.01
2017-12-29T02:00:33.909Z,14.01
2017-12-29T02:03:01.479Z,13.99
2017-12-29T02:05:29.122Z,13.99
2017-12-29T02:07:56.718Z,14.03
2017-12-29T02:10:25.207Z,13.96
2017-12-29T02:12:52.814Z,13.85
2017-12-29T02:15:20.384Z,13.88
2017-12-29T02:17:47.941Z,13.86
2017-12-29T02:20:15.536Z,13.76
2017-12-29T02:22:43.108Z,13.84
2017-12-29T02:25:10.675Z,13.78
2017-12-29T02:27:38.289Z,13.75
2017-12-29T02:30:05.881Z,13.73
2017-12-29T02:32:33.419Z,13.74
2017-12-29T02:35:01.011Z,13.75
2017-12-29T02:37:28.587Z,13.81
2017-12-29T02:39:56.165Z,13.81
2017-12-29T02:42:23.754Z,13.76
2017-12-29T02:44:51.309Z,13.85
2017-12-29T02:47:18.884Z,13.86
2017-12-29T02:49:46.498Z,13.80
2017-12-29T02:52:14.063Z,13.74
2017-12-29T02:54:41.641Z,13.69
2017-12-29T02:57:09.230Z,13.57
2017-12-29T02:59:36.801Z,13.58
2017-12-29T03:02:04.397Z,13.66
2017-12-29T03:04:32.005Z,13.62
2017-12-29T03:06:59.603Z,13.55
2017-12-29T03:09:27.172Z,13.54
2017-12-29T03:11:54.796Z,13.50
2017-12-29T03:14:22.406Z,13.33
2017-12-29T03:16:49.980Z,13.31
2017-12-29T03:19:17.579Z,13.30
2017-12-29T03:21:45.171Z,13.30
2017-12-29T03:24:12.753Z,13.26
2017-12-29T03:26:40.362Z,13.32
2017-12-29T03:29:07.950Z,13.40
2017-12-29T03:31:35.522Z,13.34
2017-12-29T03:34:03.123Z,13.19
2017-12-29T03:36:30.693Z,13.12
2017-12-29T03:38:58.265Z,13.14
2017-12-29T03:41:25.879Z,13.18
2017-12-29T03:43:53.593Z,13.18
2017-12-29T03:46:21.168Z,13.19
2017-12-29T03:48:48.780Z,13.09
2017-12-29T03:51:16.369Z,12.89
2017-12-29T03:53:43.959Z,12.79
2017-12-29T03:56:11.563Z,12.67
2017-12-29T03:58:39.147Z,12.40
2017-12-29T04:01:06.697Z,12.24
2017-12-29T04:03:34.312Z,12.05
2017-12-29T04:06:01.886Z,11.91
2017-12-29T04:08:29.456Z,11.80
2017-12-29T04:10:57.454Z,11.63
2017-12-29T04:13:25.029Z,11.56
2017-12-29T04:15:52.608Z,11.48
2017-12-29T04:18:20.233Z,11.49
2017-12-29T04:20:47.785Z,11.38
2017-12-29T04:23:15.360Z,11.37
2017-12-29T04:25:42.989Z,11.29
2017-12-29T04:28:10.569Z,11.30
2017-12-29T04:30:38.143Z,11.22
2017-12-29T04:33:06.824Z,11.24
2017-12-29T04:35:34.403Z,11.22
2017-12-29T04:38:02.125Z,11.21
2017-12-29T04:40:29.716Z,11.26
2017-12-29T04:42:57.318Z,11.31
2017-12-29T04:45:24.947Z,11.32
2017-12-29T04:47:52.552Z,11.38
2017-12-29T04:50:20.129Z,11.37
2017-12-29T04:52:47.745Z,11.37
2017-12-29T04:55:15.328Z,11.33
2017-12-29T04:57:42.895Z,11.19
2017-12-29T05:00:10.502Z,11.16
2017-12-29T05:02:38.066Z,11.09
2017-12-29T05:05:05.636Z,11.16
2017-12-29T05:07:33.260Z,11.13
2017-12-29T05:10:00.840Z,11.12
2017-12-29T05:12:28.424Z,11.10
2017-12-29T05:14:56.032Z,11.07
2017-12-29T05:17:23.613Z,11.02
2017-12-29T05:19:51.192Z,11.00
2017-12-29T05:22:18.836Z,10.97
2017-12-29T05:24:46.424Z,10.96
2017-12-29T05:27:13.993Z,10.96
2017-12-29T05:29:41.613Z,11.00
2017-12-29T05:32:09.197Z,11.05
2017-12-29T05:34:36.792Z,11.13
2017-12-29T05:37:04.413Z,11.02
2017-12-29T05:39:31.983Z,11.06
2017-12-29T05:41:59.590Z,11.02
2017-12-29T05:44:27.209Z,11.08
2017-12-29T05:46:54.945Z,11.11
2017-12-29T05:49:22.530Z,11.09
2017-12-29T05:51:50.149Z,11.14
2017-12-29T05:54:17.750Z,11.11
2017-12-29T05:56:45.333Z,11.14
2017-12-29T05:59:12.940Z,11.18
2017-12-29T06:01:40.534Z,11.19
2017-12-29T06:04:08.111Z,11.24
2017-12-29T06:06:35.723Z,11.21
2017-12-29T06:09:03.352Z,11.24
2017-12-29T06:11:30.961Z,11.19
2017-12-29T06:13:58.563Z,11.24
2017-12-29T06:16:26.142Z,11.22
2017-12-29T06:18:53.715Z,11.17
2017-12-29T06:21:21.324Z,11.23
2017-12-29T06:23:48.896Z,11.23
2017-12-29T06:26:16.466Z,11.20
2017-12-29T06:28:44.068Z,11.16
2017-12-29T06:31:11.635Z,11.16
2017-12-29T06:33:39.197Z,11.12
2017-12-29T06:36:06.789Z,11.08
2017-12-29T06:38:34.398Z,11.06
2017-12-29T06:41:01.971Z,11.08
2017-12-29T06:43:29.597Z,10.97
2017-12-29T06:45:57.167Z,10.91
2017-12-29T06:48:24.749Z,10.91
2017-12-29T06:50:52.351Z,10.89
2017-12-29T06:53:19.943Z,10.86
2017-12-29T06:55:47.517Z,10.82
2017-12-29T06:58:15.231Z,10.75
2017-12-29T07:00:42.798Z,10.69
2017-12-29T07:03:10.373Z,10.63
2017-12-29T07:05:37.979Z,10.64
2017-12-29T07:08:05.561Z,10.57
2017-12-29T07:10:33.124Z,10.56
2017-12-29T07:13:00.735Z,10.49
2017-12-29T07:15:28.337Z,10.37
2017-12-29T07:17:56.038Z,10.27
2017-12-29T07:20:23.655Z,10.27
2017-12-29T07:22:51.207Z,10.32
2017-12-29T07:25:18.790Z,10.34
2017-12-29T07:27:46.414Z,10.30
2017-12-29T07:30:14.003Z,10.39
2017-12-29T07:32:41.577Z,10.41
2017-12-29T07:35:09.207Z,10.43
2017-12-29T07:37:36.769Z,10.52
2017-12-29T07:40:04.316Z,10.56
2017-12-29T07:42:31.911Z,10.64
2017-12-29T07:44:59.488Z,10.67
2017-12-29T07:47:27.075Z,10.69
2017-12-29T07:49:54.717Z,10.72
2017-12-29T07:52:22.324Z,10.74
2017-12-29T07:54:49.888Z,10.80
2017-12-29T07:57:17.487Z,10.75
2017-12-29T07:59:45.070Z,10.53
2017-12-29T08:02:12.647Z,10.53
2017-12-29T08:04:40.298Z,10.48
2017-12-29T08:07:07.937Z,10.48
2017-12-29T08:09:35.525Z,10.42
2017-12-29T08:12:03.206Z,10.46
2017-12-29T08:14:30.783Z,10.48
2017-12-29T08:16:58.343Z,10.57
2017-12-29T08:19:25.952Z,10.55
2017-12-29T08:21:53.541Z,10.61
2017-12-29T08:24:21.160Z,10.70
2017-12-29T08:26:48.785Z,10.79
2017-12-29T08:29:16.441Z,10.86
2017-12-29T08:31:44.004Z,10.89
2017-12-29T08:34:11.590Z,10.84
2017-12-29T08:36:39.155Z,10.77
2017-12-29T08:39:06.825Z,10.81
2017-12-29T08:41:34.424Z,10.76
2017-12-29T08:44:02.011Z,10.56
2017-12-29T08:46:29.575Z,10.59
2017-12-29T08:48:57.294Z,10.56
2017-12-29T08:51:24.853Z,10.54
2017-12-29T08:53:52.445Z,10.52
2017-12-29T08:56:20.042Z,10.50
2017-12-29T08:58:47.602Z,10.52
2017-12-29T09:01:15.164Z,10.61
2017-12-29T09:03:42.765Z,10.63
2017-12-29T09:06:10.341Z,10.65
2017-12-29T09:08:37.943Z,10.69
2017-12-29T09:11:05.550Z,10.67
2017-12-29T09:13:33.124Z,10.69
2017-12-29T09:16:00.691Z,10.77
2017-12-29T09:18:28.298Z,10.83
2017-12-29T09:20:55.870Z,10.82
2017-12-29T09:23:23.447Z,10.83
2017-12-29T09:25:51.075Z,10.86
2017-12-29T09:28:18.673Z,10.85
2017-12-29T09:30:46.253Z,10.81
2017-12-29T09:33:13.872Z,10.71
2017-12-29T09:35:41.496Z,10.72
2017-12-29T09:38:09.051Z,10.79
2017-12-29T09:40:36.668Z,10.77
2017-12-29T09:43:04.255Z,10.78
2017-12-29T09:45:31.834Z,10.72
2017-12-29T09:47:59.417Z,10.77
2017-12-29T09:50:26.993Z,10.78
2017-12-29T09:52:54.564Z,10.86
2017-12-29T09:55:22.182Z,10.83
2017-12-29T09:57:49.742Z,10.86
2017-12-29T10:00:17.317Z,10.88
2017-12-29T10:02:44.923Z,10.92
2017-12-29T10:05:12.488Z,10.93
2017-12-29T10:07:40.060Z,10.85
2017-12-29T10:10:07.657Z,10.85
2017-12-29T10:12:35.227Z,10.89
2017-12-29T10:15:02.802Z,11.00
2017-12-29T10:17:30.404Z,11.06
2017-12-29T10:19:57.976Z,11.06
2017-12-29T10:22:25.548Z,11.08
2017-12-29T10:24:53.152Z,11.14
2017-12-29T10:27:20.699Z,11.24
2017-12-29T10:29:48.264Z,11.32
2017-12-29T10:32:15.876Z,11.18
2017-12-29T10:34:43.448Z,11.06
2017-12-29T10:37:11.067Z,10.93
2017-12-29T10:39:38.677Z,11.06
2017-12-29T10:42:06.410Z,11.13
2017-12-29T10:44:34.041Z,11.17
2017-12-29T10:47:01.601Z,11.29
2017-12-29T10:49:29.161Z,11.26
2017-12-29T10:51:56.778Z,11.17
2017-12-29T10:54:24.358Z,11.19
2017-12-29T10:56:51.935Z,11.10
2017-12-29T10:59:19.529Z,11.12
2017-12-29T11:01:47.101Z,10.90
2017-12-29T11:04:14.666Z,10.71
2017-12-29T11:06:42.518Z,10.73
2017-12-29T11:09:10.137Z,10.80
2017-12-29T11:11:37.693Z,10.89
2017-12-29T11:14:05.286Z,10.99
2017-12-29T11:16:33.717Z,11.01
2017-12-29T11:19:01.323Z,10.98
2017-12-29T11:21:28.935Z,11.04
2017-12-29T11:23:56.487Z,11.02
2017-12-29T11:26:24.077Z,11.06
2017-12-29T11:28:51.696Z,11.09
2017-12-29T11:31:19.271Z,11.01
2017-12-29T11:33:46.828Z,10.82
2017-12-29T11:36:14.417Z,10.65
2017-12-29T11:38:41.995Z,10.60
2017-12-29T11:41:09.592Z,10.63
2017-12-29T11:43:37.179Z,10.63
2017-12-29T11:46:04.739Z,10.61
2017-12-29T11:48:32.308Z,10.74
2017-12-29T11:50:59.903Z,10.90
2017-12-29T11:53:27.492Z,11.02
2017-12-29T11:55:55.092Z,11.10
2017-12-29T11:58:22.716Z,11.19
2017-12-29T12:00:50.323Z,11.25
2017-12-29T12:03:17.875Z,11.33
2017-12-29T12:05:45.544Z,11.34
2017-12-29T12:08:13.113Z,11.42
2017-12-29T12:10:40.683Z,11.38
2017-12-29T12:13:08.277Z,11.37
2017-12-29T12:15:35.834Z,11.33
2017-12-29T12:18:03.493Z,11.28
2017-12-29T12:20:31.120Z,11.15
2017-12-29T12:22:58.680Z,11.14
2017-12-29T12:25:26.227Z,11.20
2017-12-29T12:27:53.819Z,11.22
2017-12-29T12:30:21.379Z,11.22
2017-12-29T12:32:48.951Z,11.12
2017-12-29T12:35:16.571Z,11.13
2017-12-29T12:37:44.138Z,11.28
2017-12-29T12:40:11.732Z,11.33
2017-12-29T12:42:39.378Z,11.32
2017-12-29T12:45:06.948Z,11.21
2017-12-29T12:47:34.518Z,11.49
2017-12-29T12:50:02.132Z,11.65
2017-12-29T12:52:29.699Z,12.30
2017-12-29T12:54:57.264Z,12.80
2017-12-29T12:57:24.911Z,13.35
2017-12-29T12:59:52.530Z,14.24
2017-12-29T13:02:20.089Z,15.40
2017-12-29T13:04:47.687Z,15.56
2017-12-29T13:07:15.313Z,14.58
2017-12-29T13:09:42.902Z,13.84
2017-12-29T13:12:10.502Z,12.97
2017-12-29T13:14:38.054Z,12.62
2017-12-29T13:17:05.612Z,12.32
2017-12-29T13:19:33.227Z,12.20
2017-12-29T13:22:00.783Z,12.15
2017-12-29T13:24:28.368Z,11.97
2017-12-29T13:26:55.987Z,11.59
2017-12-29T13:29:23.549Z,11.77
2017-12-29T13:31:51.135Z,11.79
2017-12-29T13:34:18.728Z,11.77
2017-12-29T13:36:46.340Z,11.78
2017-12-29T13:39:13.954Z,11.72
2017-12-29T13:41:41.539Z,11.80
2017-12-29T13:44:09.111Z,11.85
2017-12-29T13:46:36.663Z,12.12
2017-12-29T13:49:04.242Z,12.64
2017-12-29T13:51:31.812Z,13.45
2017-12-29T13:53:59.372Z,13.22
2017-12-29T13:56:26.981Z,13.25
2017-12-29T13:58:54.628Z,13.54
2017-12-29T14:01:22.187Z,13.92
2017-12-29T14:03:49.782Z,13.74
2017-12-29T14:06:17.362Z,13.37
2017-12-29T14:08:44.916Z,12.97
2017-12-29T14:11:12.524Z,12.49
2017-12-29T14:13:40.120Z,12.08
2017-12-29T14:16:07.702Z,11.89
2017-12-29T14:18:35.294Z,11.63
2017-12-29T14:21:02.876Z,11.35
2017-12-29T14:23:30.433Z,11.13
2017-12-29T14:25:58.040Z,10.85
2017-12-29T14:28:25.595Z,10.72
2017-12-29T14:30:53.209Z,10.51
2017-12-29T14:33:20.801Z,10.37
2017-12-29T14:35:48.445Z,10.17
2017-12-29T14:38:15.987Z,9.97
2017-12-29T14:40:43.570Z,9.79
2017-12-29T14:43:11.151Z,9.73
2017-12-29T14:45:38.733Z,9.58
2017-12-29T14:48:06.337Z,9.35
2017-12-29T14:50:33.905Z,9.27
2017-12-29T14:53:01.497Z,9.21
2017-12-29T14:55:29.092Z,9.18
2017-12-29T14:57:56.661Z,9.09
2017-12-29T15:00:24.216Z,9.00
2017-12-29T15:02:51.820Z,8.95
2017-12-29T15:05:19.402Z,8.86
2017-12-29T15:07:46.962Z,8.76
2017-12-29T15:10:14.571Z,8.83
2017-12-29T15:12:42.196Z,8.85
2017-12-29T15:15:09.798Z,9.26
2017-12-29T15:17:37.417Z,9.39
2017-12-29T15:20:04.984Z,9.42
2017-12-29T15:22:32.536Z,9.39
2017-12-29T15:25:00.138Z,9.22
2017-12-29T15:27:27.693Z,9.01
2017-12-29T15:29:55.299Z,8.93
2017-12-29T15:32:22.940Z,8.86
2017-12-29T15:34:50.571Z,8.80
2017-12-29T15:37:18.207Z,8.73
2017-12-29T15:39:45.802Z,8.77
2017-12-29T15:42:13.370Z,8.78
2017-12-29T15:44:40.948Z,8.76
2017-12-29T15:47:08.533Z,8.77
2017-12-29T15:49:36.123Z,8.71
2017-12-29T15:52:03.687Z,8.76
2017-12-29T15:54:31.296Z,8.79
2017-12-29T15:56:58.836Z,8.71
2017-12-29T15:59:26.421Z,8.73
2017-12-29T16:01:54.829Z,8.60
2017-12-29T16:04:22.396Z,8.61
2017-12-29T16:06:49.966Z,8.47
2017-12-29T16:09:17.570Z,8.49
2017-12-29T16:11:45.130Z,8.49
2017-12-29T16:14:12.696Z,8.52
2017-12-29T16:16:40.296Z,8.61
2017-12-29T16:19:07.866Z,8.79
2017-12-29T16:21:35.430Z,8.83
2017-12-29T16:24:03.039Z,8.84
2017-12-29T16:26:30.615Z,8.89
2017-12-29T16:28:58.208Z,8.94
2017-12-29T16:31:25.823Z,9.03
2017-12-29T16:33:53.576Z,9.09
2017-12-29T16:36:21.126Z,9.11
2017-12-29T16:38:48.701Z,8.99
2017-12-29T16:41:16.263Z,8.82
2017-12-29T16:43:43.927Z,8.76
2017-12-29T16:46:11.467Z,8.83
2017-12-29T16:48:39.051Z,8.82
2017-12-29T16:51:06.678Z,8.82
2017-12-29T16:53:34.255Z,8.84
2017-12-29T16:56:01.805Z,8.73
2017-12-29T16:58:29.501Z,8.70
2017-12-29T17:00:57.095Z,8.65
2017-12-29T17:03:25.536Z,8.56
2017-12-29T17:05:53.097Z,8.42
2017-12-29T17:08:20.692Z,8.41
2017-12-29T17:10:48.250Z,8.36
2017-12-29T17:13:15.819Z,8.34
2017-12-29T17:15:43.423Z,8.40
2017-12-29T17:18:11.020Z,8.43
2017-12-29T17:20:38.598Z,8.43
2017-12-29T17:23:06.247Z,8.45
2017-12-29T17:25:33.839Z,8.39
2017-12-29T17:28:02.142Z,8.37
2017-12-29T17:30:29.866Z,8.38
2017-12-29T17:32:59.722Z,8.33
2017-12-29T17:35:29.477Z,8.31
2017-12-29T17:37:59.695Z,8.30
2017-12-29T17:40:29.794Z,8.20
2017-12-29T17:43:00.258Z,8.26
2017-12-29T17:45:30.154Z,8.26
2017-12-29T17:47:57.875Z,8.43
2017-12-29T17:50:25.469Z,8.53
2017-12-29T17:52:53.006Z,8.52
2017-12-29T17:55:20.576Z,8.53
2017-12-29T17:57:48.162Z,8.47
2017-12-29T18:00:15.764Z,8.45
2017-12-29T18:02:43.347Z,8.42
2017-12-29T18:05:10.955Z,8.38
2017-12-29T18:07:38.521Z,8.39
2017-12-29T18:10:06.086Z,8.42
2017-12-29T18:12:33.705Z,8.51
2017-12-29T18:15:01.274Z,8.61
2017-12-29T18:17:28.842Z,8.64
2017-12-29T18:19:56.434Z,8.63
2017-12-29T18:22:23.986Z,8.53
2017-12-29T18:24:51.635Z,8.49
2017-12-29T18:27:19.227Z,8.49
2017-12-29T18:29:46.762Z,8.50
2017-12-29T18:32:14.349Z,8.51
2017-12-29T18:34:41.926Z,8.53
2017-12-29T18:37:09.530Z,8.50
2017-12-29T18:39:37.103Z,8.50
2017-12-29T18:42:04.754Z,8.49
2017-12-29T18:44:32.324Z,8.42
2017-12-29T18:46:59.886Z,8.43
2017-12-29T18:49:27.458Z,8.42
2017-12-29T18:51:55.001Z,8.35
2017-12-29T18:54:22.593Z,8.27
2017-12-29T18:56:50.219Z,8.31
2017-12-29T18:59:17.799Z,8.30
2017-12-29T19:01:45.356Z,8.33
2017-12-29T19:04:12.946Z,8.32
2017-12-29T19:06:40.765Z,8.30
2017-12-29T19:09:08.354Z,8.28
2017-12-29T19:11:35.954Z,8.19
2017-12-29T19:14:03.514Z,8.21
2017-12-29T19:16:31.089Z,8.17
2017-12-29T19:18:58.683Z,8.14
2017-12-29T19:21:26.248Z,8.12
2017-12-29T19:23:53.818Z,8.08
2017-12-29T19:26:21.395Z,8.06
2017-12-29T19:28:48.959Z,7.99
2017-12-29T19:31:16.579Z,7.94
2017-12-29T19:33:44.153Z,7.88
2017-12-29T19:36:11.710Z,7.85
2017-12-29T19:38:39.367Z,7.84
2017-12-29T19:41:07.001Z,7.85
2017-12-29T19:43:34.576Z,7.85
2017-12-29T19:46:02.131Z,7.62
2017-12-29T19:48:29.725Z,7.55
2017-12-29T19:50:57.282Z,7.43
2017-12-29T19:53:24.848Z,7.35
2017-12-29T19:55:52.431Z,7.35
2017-12-29T19:58:19.989Z,7.26
2017-12-29T20:00:47.518Z,7.27
2017-12-29T20:03:15.086Z,7.22
2017-12-29T20:05:42.707Z,7.23
2017-12-29T20:08:10.265Z,7.11
2017-12-29T20:10:37.832Z,7.10
2017-12-29T20:13:05.416Z,7.03
2017-12-29T20:15:32.976Z,6.95
2017-12-29T20:18:00.513Z,6.87
2017-12-29T20:20:28.120Z,6.82
2017-12-29T20:22:55.684Z,6.80
2017-12-29T20:25:23.262Z,6.70
2017-12-29T20:27:50.881Z,6.63
2017-12-29T20:30:18.493Z,6.60
2017-12-29T20:32:46.054Z,6.66
2017-12-29T20:35:13.664Z,6.65
2017-12-29T20:37:41.224Z,6.64
2017-12-29T20:40:08.786Z,6.62
2017-12-29T20:42:36.379Z,6.58
2017-12-29T20:45:03.931Z,6.50
2017-12-29T20:47:31.483Z,6.46
2017-12-29T20:49:59.082Z,6.34
2017-12-29T20:52:26.657Z,6.28
2017-12-29T20:54:54.209Z,6.27
2017-12-29T20:57:21.801Z,6.24
2017-12-29T20:59:49.359Z,6.24
2017-12-29T21:02:16.924Z,6.25
2017-12-29T21:04:44.503Z,6.26
2017-12-29T21:07:12.080Z,6.26
2017-12-29T21:09:39.665Z,6.24
2017-12-29T21:12:07.296Z,6.27
2017-12-29T21:14:34.891Z,6.34
2017-12-29T21:17:02.468Z,6.29
2017-12-29T21:19:30.067Z,6.30
2017-12-29T21:21:57.629Z,6.32
2017-12-29T21:24:25.199Z,6.38
2017-12-29T21:26:52.793Z,6.33
2017-12-29T21:29:20.382Z,6.15
2017-12-29T21:31:47.945Z,6.10
2017-12-29T21:34:15.681Z,6.16
2017-12-29T21:36:43.344Z,6.23
2017-12-29T21:39:10.890Z,6.23
2017-12-29T21:41:38.482Z,6.26
2017-12-29T21:44:06.034Z,6.18
2017-12-29T21:46:33.601Z,6.20
2017-12-29T21:49:01.250Z,6.20
2017-12-29T21:51:28.879Z,6.27
2017-12-29T21:53:56.456Z,6.25
2017-12-29T21:56:24.046Z,6.23
2017-12-29T21:58:51.601Z,6.21
2017-12-29T22:01:19.176Z,6.18
2017-12-29T22:03:46.814Z,6.20
2017-12-29T22:06:14.359Z,6.10
2017-12-29T22:08:41.912Z,6.04
2017-12-29T22:11:09.518Z,6.00
2017-12-29T22:13:37.085Z,6.02
2017-12-29T22:16:04.645Z,6.05
2017-12-29T22:18:32.249Z,6.13
2017-12-29T22:20:59.809Z,6.15
2017-12-29T22:23:27.379Z,6.11
2017-12-29T22:25:55.169Z,6.10
2017-12-29T22:28:22.709Z,6.10
2017-12-29T22:30:50.281Z,6.15
2017-12-29T22:33:17.903Z,6.18
2017-12-29T22:35:45.477Z,6.17
2017-12-29T22:38:13.062Z,6.18
2017-12-29T22:40:40.647Z,6.21
2017-12-29T22:43:08.192Z,6.09
2017-12-29T22:45:35.749Z,6.04
2017-12-29T22:48:03.345Z,5.98
2017-12-29T22:50:30.913Z,5.85
2017-12-29T22:52:58.482Z,5.78
2017-12-29T22:55:26.144Z,5.77
2017-12-29T22:57:53.709Z,5.77
2017-12-29T23:00:21.403Z,5.74
2017-12-29T23:02:48.977Z,5.79
2017-12-29T23:05:16.537Z,5.80
2017-12-29T23:07:44.114Z,5.82
2017-12-29T23:10:11.700Z,5.87
2017-12-29T23:12:39.245Z,5.83
2017-12-29T23:15:06.790Z,5.85
2017-12-29T23:17:34.455Z,5.78
2017-12-29T23:20:02.017Z,5.84
2017-12-29T23:22:29.581Z,5.85
2017-12-29T23:24:57.176Z,5.87
2017-12-29T23:27:24.844Z,5.90
2017-12-29T23:29:52.394Z,5.85
2017-12-29T23:32:20.004Z,5.87
2017-12-29T23:34:47.657Z,5.95
2017-12-29T23:37:15.222Z,5.98
2017-12-29T23:39:42.826Z,5.93
2017-12-29T23:42:10.384Z,5.92
2017-12-29T23:44:37.953Z,5.89
2017-12-29T23:47:05.546Z,5.93
2017-12-29T23:49:33.150Z,5.92
2017-12-29T23:52:00.710Z,5.96
2017-12-29T23:54:28.323Z,5.99
2017-12-29T23:56:55.888Z,6.05
2017-12-29T23:59:23.453Z,6.07
